sensor_id;sensor_type;location;lat;lon;timestamp;pressure;altitude;pressure_sealevel;temperature;humidity
67434;BME280;54305;47.950;6.572;2023-07-30T00:00:22;94156.34;;;17.06;100.00
67434;BME280;54305;47.950;6.572;2023-07-30T00:02:47;94155.75;;;17.04;100.00
67434;BME280;54305;47.950;6.572;2023-07-30T00:05:12;94140.53;;;17.06;100.00
67434;BME280;54305;47.950;6.572;2023-07-30T00:07:38;94148.03;;;17.02;100.00
67434;BME280;54305;47.950;6.572;2023-07-30T00:10:03;94167.47;;;17.08;100.00
67434;BME280;54305;47.950;6.572;2023-07-30T00:12:28;94155.50;;;17.05;100.00
67434;BME280;54305;47.950;6.572;2023-07-30T00:14:54;94152.09;;;17.05;100.00
67434;BME280;54305;47.950;6.572;2023-07-30T00:17:19;94155.13;;;17.02;100.00
67434;BME280;54305;47.950;6.572;2023-07-30T00:19:44;94152.69;;;17.07;100.00
67434;BME280;54305;47.950;6.572;2023-07-30T00:22:09;94155.31;;;17.07;100.00
67434;BME280;54305;47.950;6.572;2023-07-30T00:24:35;94154.91;;;16.97;100.00
67434;BME280;54305;47.950;6.572;2023-07-30T00:27:00;94149.25;;;16.93;100.00
67434;BME280;54305;47.950;6.572;2023-07-30T00:29:25;94159.78;;;16.87;100.00
67434;BME280;54305;47.950;6.572;2023-07-30T00:31:50;94150.28;;;16.86;100.00
67434;BME280;54305;47.950;6.572;2023-07-30T00:34:16;94163.44;;;16.86;100.00
67434;BME280;54305;47.950;6.572;2023-07-30T00:36:41;94163.03;;;16.82;100.00
67434;BME280;54305;47.950;6.572;2023-07-30T00:39:06;94161.81;;;16.78;100.00
67434;BME280;54305;47.950;6.572;2023-07-30T00:41:32;94163.03;;;16.76;100.00
67434;BME280;54305;47.950;6.572;2023-07-30T00:43:57;94160.59;;;16.81;100.00
67434;BME280;54305;47.950;6.572;2023-07-30T00:46:22;94151.69;;;16.75;100.00
67434;BME280;54305;47.950;6.572;2023-07-30T00:48:48;94158.59;;;16.70;100.00
67434;BME280;54305;47.950;6.572;2023-07-30T00:51:13;94148.84;;;16.70;100.00
67434;BME280;54305;47.950;6.572;2023-07-30T00:53:40;94141.16;;;16.69;100.00
67434;BME280;54305;47.950;6.572;2023-07-30T00:56:05;94146.44;;;16.75;100.00
67434;BME280;54305;47.950;6.572;2023-07-30T00:58:30;94136.94;;;16.68;100.00
67434;BME280;54305;47.950;6.572;2023-07-30T01:00:56;94138.97;;;16.72;100.00
67434;BME280;54305;47.950;6.572;2023-07-30T01:03:21;94135.72;;;16.77;100.00
67434;BME280;54305;47.950;6.572;2023-07-30T01:05:47;94124.59;;;16.75;100.00
67434;BME280;54305;47.950;6.572;2023-07-30T01:08:12;94133.47;;;16.74;100.00
67434;BME280;54305;47.950;6.572;2023-07-30T01:10:38;94144.00;;;16.74;100.00
67434;BME280;54305;47.950;6.572;2023-07-30T01:13:03;94138.75;;;16.74;100.00
67434;BME280;54305;47.950;6.572;2023-07-30T01:15:29;94142.38;;;16.79;100.00
67434;BME280;54305;47.950;6.572;2023-07-30T01:17:55;94143.22;;;16.80;100.00
67434;BME280;54305;47.950;6.572;2023-07-30T01:20:20;94153.31;;;16.76;100.00
67434;BME280;54305;47.950;6.572;2023-07-30T01:22:46;94138.34;;;16.77;100.00
67434;BME280;54305;47.950;6.572;2023-07-30T01:25:11;94144.00;;;16.74;100.00
67434;BME280;54305;47.950;6.572;2023-07-30T01:27:37;94148.66;;;16.78;100.00
67434;BME280;54305;47.950;6.572;2023-07-30T01:30:11;94149.69;;;16.77;100.00
67434;BME280;54305;47.950;6.572;2023-07-30T01:32:38;94143.22;;;16.80;100.00
67434;BME280;54305;47.950;6.572;2023-07-30T01:35:05;94150.47;;;16.78;100.00
67434;BME280;54305;47.950;6.572;2023-07-30T01:37:32;94152.13;;;16.79;100.00
67434;BME280;54305;47.950;6.572;2023-07-30T01:39:58;94168.69;;;16.79;100.00
67434;BME280;54305;47.950;6.572;2023-07-30T01:42:28;94157.38;;;16.79;100.00
67434;BME280;54305;47.950;6.572;2023-07-30T01:44:53;94169.31;;;16.75;100.00
67434;BME280;54305;47.950;6.572;2023-07-30T01:47:19;94162.00;;;16.77;100.00
67434;BME280;54305;47.950;6.572;2023-07-30T01:49:44;94164.66;;;16.77;100.00
67434;BME280;54305;47.950;6.572;2023-07-30T01:52:09;94158.38;;;16.78;100.00
67434;BME280;54305;47.950;6.572;2023-07-30T01:54:34;94156.56;;;16.78;100.00
67434;BME280;54305;47.950;6.572;2023-07-30T01:57:00;94159.00;;;16.80;100.00
67434;BME280;54305;47.950;6.572;2023-07-30T01:59:25;94166.69;;;16.81;100.00
67434;BME280;54305;47.950;6.572;2023-07-30T02:01:50;94163.63;;;16.78;100.00
67434;BME280;54305;47.950;6.572;2023-07-30T02:04:15;94167.91;;;16.79;100.00
67434;BME280;54305;47.950;6.572;2023-07-30T02:06:42;94175.56;;;16.74;100.00
67434;BME280;54305;47.950;6.572;2023-07-30T02:09:07;94175.16;;;16.77;100.00
67434;BME280;54305;47.950;6.572;2023-07-30T02:11:33;94177.78;;;16.77;100.00
67434;BME280;54305;47.950;6.572;2023-07-30T02:13:58;94173.16;;;16.72;100.00
67434;BME280;54305;47.950;6.572;2023-07-30T02:16:23;94167.47;;;16.69;100.00
67434;BME280;54305;47.950;6.572;2023-07-30T02:18:48;94172.72;;;16.69;100.00
67434;BME280;54305;47.950;6.572;2023-07-30T02:21:14;94168.88;;;16.71;100.00
67434;BME280;54305;47.950;6.572;2023-07-30T02:23:39;94166.28;;;16.65;100.00
67434;BME280;54305;47.950;6.572;2023-07-30T02:26:04;94157.38;;;16.66;100.00
67434;BME280;54305;47.950;6.572;2023-07-30T02:28:29;94163.03;;;16.63;100.00
67434;BME280;54305;47.950;6.572;2023-07-30T02:30:55;94160.81;;;16.60;100.00
67434;BME280;54305;47.950;6.572;2023-07-30T02:33:20;94163.44;;;16.53;100.00
67434;BME280;54305;47.950;6.572;2023-07-30T02:35:45;94163.00;;;16.50;100.00
67434;BME280;54305;47.950;6.572;2023-07-30T02:38:11;94158.97;;;16.54;100.00
67434;BME280;54305;47.950;6.572;2023-07-30T02:40:36;94156.97;;;16.56;100.00
67434;BME280;54305;47.950;6.572;2023-07-30T02:43:01;94155.94;;;16.50;100.00
67434;BME280;54305;47.950;6.572;2023-07-30T02:45:27;94155.34;;;16.48;100.00
67434;BME280;54305;47.950;6.572;2023-07-30T02:47:52;94155.75;;;16.52;100.00
67434;BME280;54305;47.950;6.572;2023-07-30T02:50:17;94168.25;;;16.50;100.00
67434;BME280;54305;47.950;6.572;2023-07-30T02:52:43;94160.38;;;16.50;100.00
67434;BME280;54305;47.950;6.572;2023-07-30T02:55:08;94165.88;;;16.55;100.00
67434;BME280;54305;47.950;6.572;2023-07-30T02:57:33;94156.97;;;16.56;100.00
67434;BME280;54305;47.950;6.572;2023-07-30T02:59:58;94156.97;;;16.56;100.00
67434;BME280;54305;47.950;6.572;2023-07-30T03:02:24;94162.63;;;16.53;100.00
67434;BME280;54305;47.950;6.572;2023-07-30T03:04:49;94163.00;;;16.50;100.00
67434;BME280;54305;47.950;6.572;2023-07-30T03:07:14;94173.53;;;16.50;100.00
67434;BME280;54305;47.950;6.572;2023-07-30T03:09:39;94171.47;;;16.39;100.00
67434;BME280;54305;47.950;6.572;2023-07-30T03:12:05;94173.72;;;16.42;100.00
67434;BME280;54305;47.950;6.572;2023-07-30T03:14:30;94172.25;;;16.33;100.00
67434;BME280;54305;47.950;6.572;2023-07-30T03:16:55;94177.53;;;16.33;100.00
67434;BME280;54305;47.950;6.572;2023-07-30T03:19:21;94181.16;;;16.32;100.00
67434;BME280;54305;47.950;6.572;2023-07-30T03:21:46;94173.06;;;16.27;100.00
67434;BME280;54305;47.950;6.572;2023-07-30T03:24:11;94178.09;;;16.22;100.00
67434;BME280;54305;47.950;6.572;2023-07-30T03:26:36;94184.13;;;16.16;100.00
67434;BME280;54305;47.950;6.572;2023-07-30T03:29:02;94190.41;;;16.15;100.00
67434;BME280;54305;47.950;6.572;2023-07-30T03:31:28;94196.88;;;16.19;100.00
67434;BME280;54305;47.950;6.572;2023-07-30T03:33:53;94189.00;;;16.19;100.00
67434;BME280;54305;47.950;6.572;2023-07-30T03:36:18;94193.66;;;16.17;100.00
67434;BME280;54305;47.950;6.572;2023-07-30T03:38:44;94189.00;;;16.19;100.00
67434;BME280;54305;47.950;6.572;2023-07-30T03:41:09;94200.53;;;16.18;100.00
67434;BME280;54305;47.950;6.572;2023-07-30T03:43:35;94199.31;;;16.14;100.00
67434;BME280;54305;47.950;6.572;2023-07-30T03:46:01;94204.94;;;16.11;100.00
67434;BME280;54305;47.950;6.572;2023-07-30T03:48:26;94206.97;;;16.09;100.00
67434;BME280;54305;47.950;6.572;2023-07-30T03:50:54;94218.06;;;16.11;100.00
67434;BME280;54305;47.950;6.572;2023-07-30T03:53:20;94214.25;;;16.07;100.00
67434;BME280;54305;47.950;6.572;2023-07-30T03:55:45;94217.84;;;16.06;100.00
67434;BME280;54305;47.950;6.572;2023-07-30T03:58:10;94223.94;;;16.06;100.00
67434;BME280;54305;47.950;6.572;2023-07-30T04:00:35;94221.50;;;16.05;100.00
67434;BME280;54305;47.950;6.572;2023-07-30T04:03:01;94220.47;;;16.06;100.00
67434;BME280;54305;47.950;6.572;2023-07-30T04:05:26;94238.50;;;16.09;100.00
67434;BME280;54305;47.950;6.572;2023-07-30T04:07:51;94222.13;;;16.07;100.00
67434;BME280;54305;47.950;6.572;2023-07-30T04:10:16;94217.84;;;16.06;100.00
67434;BME280;54305;47.950;6.572;2023-07-30T04:12:42;94225.97;;;16.04;100.00
67434;BME280;54305;47.950;6.572;2023-07-30T04:15:07;94218.88;;;16.05;100.00
67434;BME280;54305;47.950;6.572;2023-07-30T04:17:33;94231.63;;;16.08;100.00
67434;BME280;54305;47.950;6.572;2023-07-30T04:19:59;94225.13;;;16.04;100.00
67434;BME280;54305;47.950;6.572;2023-07-30T04:22:24;94230.59;;;16.02;100.00
67434;BME280;54305;47.950;6.572;2023-07-30T04:24:49;94223.53;;;16.03;100.00
67434;BME280;54305;47.950;6.572;2023-07-30T04:27:15;94226.34;;;16.01;100.00
67434;BME280;54305;47.950;6.572;2023-07-30T04:29:40;94222.09;;;16.00;100.00
67434;BME280;54305;47.950;6.572;2023-07-30T04:32:05;94223.31;;;15.98;100.00
67434;BME280;54305;47.950;6.572;2023-07-30T04:34:31;94226.31;;;15.95;100.00
67434;BME280;54305;47.950;6.572;2023-07-30T04:36:56;94233.59;;;15.93;100.00
67434;BME280;54305;47.950;6.572;2023-07-30T04:39:21;94235.59;;;15.91;100.00
67434;BME280;54305;47.950;6.572;2023-07-30T04:41:46;94247.09;;;15.90;100.00
67434;BME280;54305;47.950;6.572;2023-07-30T04:44:12;94237.97;;;15.86;100.00
67434;BME280;54305;47.950;6.572;2023-07-30T04:46:37;94241.03;;;15.83;100.00
67434;BME280;54305;47.950;6.572;2023-07-30T04:49:02;94240.00;;;15.84;100.00
67434;BME280;54305;47.950;6.572;2023-07-30T04:51:29;94245.06;;;15.85;100.00
67434;BME280;54305;47.950;6.572;2023-07-30T04:53:54;94246.66;;;15.80;100.00
67434;BME280;54305;47.950;6.572;2023-07-30T04:56:19;94238.59;;;15.81;100.00
67434;BME280;54305;47.950;6.572;2023-07-30T04:58:45;94240.16;;;15.76;100.00
67434;BME280;54305;47.950;6.572;2023-07-30T05:01:10;94248.03;;;15.76;100.00
67434;BME280;54305;47.950;6.572;2023-07-30T05:03:35;94245.22;;;15.77;100.00
67434;BME280;54305;47.950;6.572;2023-07-30T05:06:00;94248.03;;;15.76;100.00
67434;BME280;54305;47.950;6.572;2023-07-30T05:08:26;94241.03;;;15.83;100.00
67434;BME280;54305;47.950;6.572;2023-07-30T05:10:51;94234.75;;;15.84;100.00
67434;BME280;54305;47.950;6.572;2023-07-30T05:13:16;94250.94;;;15.87;100.00
67434;BME280;54305;47.950;6.572;2023-07-30T05:15:41;94255.75;;;15.84;100.00
67434;BME280;54305;47.950;6.572;2023-07-30T05:18:07;94264.25;;;15.86;100.00
67434;BME280;54305;47.950;6.572;2023-07-30T05:20:32;94261.81;;;15.84;100.00
67434;BME280;54305;47.950;6.572;2023-07-30T05:22:57;94267.50;;;15.88;100.00
67434;BME280;54305;47.950;6.572;2023-07-30T05:25:22;94270.66;;;15.77;100.00
67434;BME280;54305;47.950;6.572;2023-07-30T05:27:48;94268.22;;;15.69;100.00
67434;BME280;54305;47.950;6.572;2023-07-30T05:30:13;94272.22;;;15.65;100.00
67434;BME280;54305;47.950;6.572;2023-07-30T05:32:38;94276.09;;;15.69;100.00
67434;BME280;54305;47.950;6.572;2023-07-30T05:35:04;94290.41;;;15.66;100.00
67434;BME280;54305;47.950;6.572;2023-07-30T05:37:30;94296.44;;;15.67;100.00
67434;BME280;54305;47.950;6.572;2023-07-30T05:39:55;94283.13;;;15.68;100.00
67434;BME280;54305;47.950;6.572;2023-07-30T05:42:20;94290.81;;;15.70;100.00
67434;BME280;54305;47.950;6.572;2023-07-30T05:44:46;94283.97;;;15.69;100.00
67434;BME280;54305;47.950;6.572;2023-07-30T05:47:11;94296.03;;;15.63;100.00
67434;BME280;54305;47.950;6.572;2023-07-30T05:49:36;94294.84;;;15.66;100.00
67434;BME280;54305;47.950;6.572;2023-07-30T05:52:02;94302.09;;;15.64;100.00
67434;BME280;54305;47.950;6.572;2023-07-30T05:54:27;94296.03;;;15.63;100.00
67434;BME280;54305;47.950;6.572;2023-07-30T05:56:52;94308.56;;;15.61;100.00
67434;BME280;54305;47.950;6.572;2023-07-30T05:59:18;94307.13;;;15.59;100.00
67434;BME280;54305;47.950;6.572;2023-07-30T06:01:43;94316.97;;;15.57;100.00
67434;BME280;54305;47.950;6.572;2023-07-30T06:04:08;94322.19;;;15.50;100.00
67434;BME280;54305;47.950;6.572;2023-07-30T06:06:33;94321.34;;;15.43;100.00
67434;BME280;54305;47.950;6.572;2023-07-30T06:08:59;94315.66;;;15.40;100.00
67434;BME280;54305;47.950;6.572;2023-07-30T06:11:24;94312.41;;;15.38;100.00
67434;BME280;54305;47.950;6.572;2023-07-30T06:13:50;94314.91;;;15.46;100.00
67434;BME280;54305;47.950;6.572;2023-07-30T06:16:16;94322.19;;;15.50;100.00
67434;BME280;54305;47.950;6.572;2023-07-30T06:18:43;94319.00;;;15.55;100.00
67434;BME280;54305;47.950;6.572;2023-07-30T06:21:08;94323.47;;;15.61;100.00
67434;BME280;54305;47.950;6.572;2023-07-30T06:23:33;94326.72;;;15.63;100.00
67434;BME280;54305;47.950;6.572;2023-07-30T06:25:58;94322.72;;;15.67;100.00
67434;BME280;54305;47.950;6.572;2023-07-30T06:28:24;94324.34;;;15.68;100.00
67434;BME280;54305;47.950;6.572;2023-07-30T06:30:49;94325.56;;;15.72;100.00
67434;BME280;54305;47.950;6.572;2023-07-30T06:33:14;94321.47;;;15.63;100.00
67434;BME280;54305;47.950;6.572;2023-07-30T06:35:40;94333.03;;;15.68;100.00
67434;BME280;54305;47.950;6.572;2023-07-30T06:38:05;94324.97;;;15.70;100.00
67434;BME280;54305;47.950;6.572;2023-07-30T06:40:31;94329.19;;;15.71;100.00
67434;BME280;54305;47.950;6.572;2023-07-30T06:42:56;94341.78;;;15.75;100.00
67434;BME280;54305;47.950;6.572;2023-07-30T06:45:21;94339.34;;;15.74;100.00
67434;BME280;54305;47.950;6.572;2023-07-30T06:47:46;94336.94;;;15.79;100.00
67434;BME280;54305;47.950;6.572;2023-07-30T06:50:12;94337.25;;;15.69;100.00
67434;BME280;54305;47.950;6.572;2023-07-30T06:52:37;94336.91;;;15.72;100.00
67434;BME280;54305;47.950;6.572;2023-07-30T06:55:02;94337.72;;;15.79;100.00
67434;BME280;54305;47.950;6.572;2023-07-30T06:57:28;94343.38;;;15.76;100.00
67434;BME280;54305;47.950;6.572;2023-07-30T06:59:54;94336.94;;;15.79;100.00
67434;BME280;54305;47.950;6.572;2023-07-30T07:02:19;94344.66;;;15.87;100.00
67434;BME280;54305;47.950;6.572;2023-07-30T07:04:44;94349.16;;;15.93;100.00
67434;BME280;54305;47.950;6.572;2023-07-30T07:07:09;94348.53;;;15.91;100.00
67434;BME280;54305;47.950;6.572;2023-07-30T07:09:35;94347.31;;;15.93;100.00
67434;BME280;54305;47.950;6.572;2023-07-30T07:12:00;94351.91;;;15.85;100.00
67434;BME280;54305;47.950;6.572;2023-07-30T07:14:25;94354.41;;;15.93;100.00
67434;BME280;54305;47.950;6.572;2023-07-30T07:16:51;94347.91;;;15.89;100.00
67434;BME280;54305;47.950;6.572;2023-07-30T07:19:17;94357.28;;;15.98;100.00
67434;BME280;54305;47.950;6.572;2023-07-30T07:21:42;94360.16;;;16.09;100.00
67434;BME280;54305;47.950;6.572;2023-07-30T07:24:07;94354.66;;;16.38;100.00
67434;BME280;54305;47.950;6.572;2023-07-30T07:26:35;94345.75;;;16.80;100.00
67434;BME280;54305;47.950;6.572;2023-07-30T07:29:00;94349.53;;;16.71;100.00
67434;BME280;54305;47.950;6.572;2023-07-30T07:31:26;94347.28;;;16.55;100.00
67434;BME280;54305;47.950;6.572;2023-07-30T07:33:52;94343.69;;;16.28;100.00
67434;BME280;54305;47.950;6.572;2023-07-30T07:36:17;94353.16;;;16.23;100.00
67434;BME280;54305;47.950;6.572;2023-07-30T07:38:43;94352.22;;;16.37;100.00
67434;BME280;54305;47.950;6.572;2023-07-30T07:41:13;94363.22;;;16.47;100.00
67434;BME280;54305;47.950;6.572;2023-07-30T07:43:38;94366.84;;;16.46;100.00
67434;BME280;54305;47.950;6.572;2023-07-30T07:46:04;94368.84;;;16.44;100.00
67434;BME280;54305;47.950;6.572;2023-07-30T07:48:35;94374.75;;;16.18;100.00
67434;BME280;54305;47.950;6.572;2023-07-30T07:51:00;94383.91;;;16.29;100.00
67434;BME280;54305;47.950;6.572;2023-07-30T07:53:25;94378.44;;;16.24;100.00
67434;BME280;54305;47.950;6.572;2023-07-30T07:55:51;94378.16;;;16.46;100.00
67434;BME280;54305;47.950;6.572;2023-07-30T07:58:16;94374.97;;;16.51;100.00
67434;BME280;54305;47.950;6.572;2023-07-30T08:00:41;94372.56;;;16.56;100.00
67434;BME280;54305;47.950;6.572;2023-07-30T08:03:06;94382.69;;;16.65;100.00
67434;BME280;54305;47.950;6.572;2023-07-30T08:05:32;94372.59;;;16.69;100.00
67434;BME280;54305;47.950;6.572;2023-07-30T08:07:57;94378.00;;;17.08;100.00
67434;BME280;54305;47.950;6.572;2023-07-30T08:10:22;94373.16;;;17.18;100.00
67434;BME280;54305;47.950;6.572;2023-07-30T08:12:47;94382.06;;;17.30;100.00
67434;BME280;54305;47.950;6.572;2023-07-30T08:15:14;94372.56;;;17.29;100.00
67434;BME280;54305;47.950;6.572;2023-07-30T08:17:39;94376.66;;;17.70;100.00
67434;BME280;54305;47.950;6.572;2023-07-30T08:20:04;94376.22;;;17.41;100.00
67434;BME280;54305;47.950;6.572;2023-07-30T08:22:30;94388.69;;;17.00;100.00
67434;BME280;54305;47.950;6.572;2023-07-30T08:24:55;94382.47;;;17.20;100.00
67434;BME280;54305;47.950;6.572;2023-07-30T08:27:20;94384.38;;;17.72;100.00
67434;BME280;54305;47.950;6.572;2023-07-30T08:29:45;94382.13;;;17.62;100.00
67434;BME280;54305;47.950;6.572;2023-07-30T08:32:11;94375.22;;;17.55;100.00
67434;BME280;54305;47.950;6.572;2023-07-30T08:34:36;94394.81;;;17.20;100.00
67434;BME280;54305;47.950;6.572;2023-07-30T08:37:01;94387.31;;;17.30;100.00
67434;BME280;54305;47.950;6.572;2023-07-30T08:39:26;94383.94;;;17.75;100.00
67434;BME280;54305;47.950;6.572;2023-07-30T08:41:52;94381.25;;;18.14;100.00
67434;BME280;54305;47.950;6.572;2023-07-30T08:44:17;94375.00;;;17.89;100.00
67434;BME280;54305;47.950;6.572;2023-07-30T08:46:42;94379.69;;;17.87;100.00
67434;BME280;54305;47.950;6.572;2023-07-30T08:49:08;94386.56;;;17.88;100.00
67434;BME280;54305;47.950;6.572;2023-07-30T08:51:33;94384.13;;;17.93;100.00
67434;BME280;54305;47.950;6.572;2023-07-30T08:54:00;94381.63;;;18.50;100.00
67434;BME280;54305;47.950;6.572;2023-07-30T08:56:26;94387.66;;;18.63;100.00
67434;BME280;54305;47.950;6.572;2023-07-30T08:58:52;94391.38;;;18.30;100.00
67434;BME280;54305;47.950;6.572;2023-07-30T09:01:22;94383.16;;;17.81;100.00
67434;BME280;54305;47.950;6.572;2023-07-30T09:03:50;94385.78;;;17.68;100.00
67434;BME280;54305;47.950;6.572;2023-07-30T09:06:17;94399.06;;;17.27;100.00
67434;BME280;54305;47.950;6.572;2023-07-30T09:08:42;94398.25;;;17.20;100.00
67434;BME280;54305;47.950;6.572;2023-07-30T09:11:08;94406.31;;;17.06;100.00
67434;BME280;54305;47.950;6.572;2023-07-30T09:13:37;94400.22;;;16.99;100.00
67434;BME280;54305;47.950;6.572;2023-07-30T09:16:07;94408.13;;;16.52;100.00
67434;BME280;54305;47.950;6.572;2023-07-30T09:18:38;94408.72;;;16.54;100.00
67434;BME280;54305;47.950;6.572;2023-07-30T09:21:03;94424.19;;;16.36;100.00
67434;BME280;54305;47.950;6.572;2023-07-30T09:23:29;94425.72;;;16.24;100.00
67434;BME280;54305;47.950;6.572;2023-07-30T09:25:57;94431.72;;;16.11;100.00
67434;BME280;54305;47.950;6.572;2023-07-30T09:28:25;94423.25;;;16.16;100.00
67434;BME280;54305;47.950;6.572;2023-07-30T09:30:59;94425.44;;;16.40;100.00
67434;BME280;54305;47.950;6.572;2023-07-30T09:33:24;94421.78;;;16.75;100.00
67434;BME280;54305;47.950;6.572;2023-07-30T09:35:49;94430.63;;;17.14;100.00
67434;BME280;54305;47.950;6.572;2023-07-30T09:38:15;94421.81;;;17.48;100.00
67434;BME280;54305;47.950;6.572;2023-07-30T09:40:40;94427.75;;;17.03;100.00
67434;BME280;54305;47.950;6.572;2023-07-30T09:43:08;94438.47;;;16.95;100.00
67434;BME280;54305;47.950;6.572;2023-07-30T09:45:35;94431.88;;;17.25;100.00
67434;BME280;54305;47.950;6.572;2023-07-30T09:48:04;94435.63;;;17.03;100.00
67434;BME280;54305;47.950;6.572;2023-07-30T09:50:37;94445.19;;;16.63;100.00
67434;BME280;54305;47.950;6.572;2023-07-30T09:53:03;94455.44;;;16.52;100.00
67434;BME280;54305;47.950;6.572;2023-07-30T09:55:29;94459.66;;;16.19;100.00
67434;BME280;54305;47.950;6.572;2023-07-30T09:57:54;94467.59;;;15.98;100.00
67434;BME280;54305;47.950;6.572;2023-07-30T10:00:19;94463.22;;;15.84;100.00
67434;BME280;54305;47.950;6.572;2023-07-30T10:02:45;94462.34;;;15.98;100.00
67434;BME280;54305;47.950;6.572;2023-07-30T10:05:11;94460.63;;;16.11;100.00
67434;BME280;54305;47.950;6.572;2023-07-30T10:07:44;94467.88;;;16.37;100.00
67434;BME280;54305;47.950;6.572;2023-07-30T10:10:11;94469.28;;;16.67;100.00
67434;BME280;54305;47.950;6.572;2023-07-30T10:12:37;94466.91;;;16.78;100.00
67434;BME280;54305;47.950;6.572;2023-07-30T10:15:05;94467.47;;;17.08;100.00
67434;BME280;54305;47.950;6.572;2023-07-30T10:17:32;94463.63;;;17.10;100.00
67434;BME280;54305;47.950;6.572;2023-07-30T10:19:57;94463.38;;;17.59;100.00
67434;BME280;54305;47.950;6.572;2023-07-30T10:22:42;94459.13;;;17.77;100.00
67434;BME280;54305;47.950;6.572;2023-07-30T10:25:10;94460.75;;;17.72;100.00
67434;BME280;54305;47.950;6.572;2023-07-30T10:27:38;94463.41;;;17.98;100.00
67434;BME280;54305;47.950;6.572;2023-07-30T10:30:11;94468.84;;;17.90;100.00
67434;BME280;54305;47.950;6.572;2023-07-30T10:38:11;94467.63;;;17.60;100.00
67434;BME280;54305;47.950;6.572;2023-07-30T10:40:38;94484.38;;;17.46;100.00
67434;BME280;54305;47.950;6.572;2023-07-30T10:43:04;94492.13;;;16.39;100.00
67434;BME280;54305;47.950;6.572;2023-07-30T10:45:47;94496.59;;;16.38;100.00
67434;BME280;54305;47.950;6.572;2023-07-30T10:48:12;94505.63;;;16.57;100.00
67434;BME280;54305;47.950;6.572;2023-07-30T10:50:38;94507.72;;;16.68;100.00
67434;BME280;54305;47.950;6.572;2023-07-30T10:53:03;94509.41;;;16.48;100.00
67434;BME280;54305;47.950;6.572;2023-07-30T10:55:31;94525.88;;;16.08;100.00
67434;BME280;54305;47.950;6.572;2023-07-30T10:57:57;94524.81;;;16.30;100.00
67434;BME280;54305;47.950;6.572;2023-07-30T11:00:22;94516.31;;;16.28;100.00
67434;BME280;54305;47.950;6.572;2023-07-30T11:02:53;94519.31;;;16.25;100.00
67434;BME280;54305;47.950;6.572;2023-07-30T11:05:19;94513.28;;;16.03;100.00
67434;BME280;54305;47.950;6.572;2023-07-30T11:07:51;94527.44;;;16.30;100.00
67434;BME280;54305;47.950;6.572;2023-07-30T11:10:16;94519.97;;;16.27;100.00
67434;BME280;54305;47.950;6.572;2023-07-30T11:12:42;94517.34;;;16.27;100.00
67434;BME280;54305;47.950;6.572;2023-07-30T11:15:07;94528.66;;;16.48;100.00
67434;BME280;54305;47.950;6.572;2023-07-30T11:17:33;94527.41;;;16.44;100.00
67434;BME280;54305;47.950;6.572;2023-07-30T11:19:58;94528.03;;;16.80;100.00
67434;BME280;54305;47.950;6.572;2023-07-30T11:22:30;94535.75;;;17.29;100.00
67434;BME280;54305;47.950;6.572;2023-07-30T11:24:56;94533.00;;;17.03;100.00
67434;BME280;54305;47.950;6.572;2023-07-30T11:27:22;94526.91;;;16.96;100.00
67434;BME280;54305;47.950;6.572;2023-07-30T11:29:53;94530.69;;;16.87;100.00
67434;BME280;54305;47.950;6.572;2023-07-30T11:32:18;94528.59;;;17.10;100.00
67434;BME280;54305;47.950;6.572;2023-07-30T11:34:44;94528.81;;;17.62;100.00
67434;BME280;54305;47.950;6.572;2023-07-30T11:37:09;94524.59;;;17.27;100.00
67434;BME280;54305;47.950;6.572;2023-07-30T11:39:35;94512.84;;;17.16;100.00
67434;BME280;54305;47.950;6.572;2023-07-30T11:42:00;94521.56;;;17.77;100.00
67434;BME280;54305;47.950;6.572;2023-07-30T11:44:33;94514.59;;;17.50;100.00
67434;BME280;54305;47.950;6.572;2023-07-30T11:46:59;94519.56;;;18.31;100.00
67434;BME280;54305;47.950;6.572;2023-07-30T11:49:24;94521.16;;;18.19;100.00
67434;BME280;54305;47.950;6.572;2023-07-30T11:51:50;94514.66;;;18.80;100.00
67434;BME280;54305;47.950;6.572;2023-07-30T11:54:20;94510.63;;;18.71;100.00
67434;BME280;54305;47.950;6.572;2023-07-30T11:56:45;94513.16;;;19.10;100.00
67434;BME280;54305;47.950;6.572;2023-07-30T11:59:11;94517.09;;;18.94;100.00
67434;BME280;54305;47.950;6.572;2023-07-30T12:01:36;94522.19;;;18.63;100.00
67434;BME280;54305;47.950;6.572;2023-07-30T12:04:03;94519.56;;;18.31;100.00
67434;BME280;54305;47.950;6.572;2023-07-30T12:06:40;94512.00;;;18.93;100.00
67434;BME280;54305;47.950;6.572;2023-07-30T12:09:16;94505.00;;;18.35;100.00
67434;BME280;54305;47.950;6.572;2023-07-30T12:14:21;94516.25;;;17.64;100.00
67434;BME280;54305;47.950;6.572;2023-07-30T12:16:46;94519.09;;;17.69;100.00
67434;BME280;54305;47.950;6.572;2023-07-30T12:19:12;94518.72;;;17.91;100.00
67434;BME280;54305;47.950;6.572;2023-07-30T12:21:37;94514.06;;;18.84;100.00
67434;BME280;54305;47.950;6.572;2023-07-30T12:24:02;94505.25;;;19.03;100.00
67434;BME280;54305;47.950;6.572;2023-07-30T12:26:28;94501.91;;;19.34;100.00
67434;BME280;54305;47.950;6.572;2023-07-30T12:28:54;94506.19;;;18.65;100.00
67434;BME280;54305;47.950;6.572;2023-07-30T12:31:19;94502.13;;;18.62;100.00
67434;BME280;54305;47.950;6.572;2023-07-30T12:33:44;94517.47;;;18.98;100.00
67434;BME280;54305;47.950;6.572;2023-07-30T12:36:09;94510.09;;;19.13;100.00
67434;BME280;54305;47.950;6.572;2023-07-30T12:38:35;94517.16;;;19.76;100.00
67434;BME280;54305;47.950;6.572;2023-07-30T12:41:00;94517.94;;;19.39;100.00
67434;BME280;54305;47.950;6.572;2023-07-30T12:43:25;94509.13;;;19.58;100.00
67434;BME280;54305;47.950;6.572;2023-07-30T12:45:50;94517.47;;;19.04;100.00
67434;BME280;54305;47.950;6.572;2023-07-30T12:48:16;94525.06;;;18.55;100.00
67434;BME280;54305;47.950;6.572;2023-07-30T12:50:41;94524.25;;;18.22;100.00